createdAt,value
2018-03-26T00:00:12.310Z,21.07
2018-03-26T00:02:45.295Z,20.33
2018-03-26T00:05:18.192Z,21.30
2018-03-26T00:07:52.082Z,21.63
2018-03-26T00:10:25.059Z,20.50
2018-03-26T00:12:58.556Z,21.23
2018-03-26T00:15:32.444Z,21.63
2018-03-26T00:18:05.705Z,21.80
2018-03-26T00:20:38.586Z,21.47
2018-03-26T00:23:12.178Z,21.50
2018-03-26T00:25:45.431Z,21.63
2018-03-26T00:28:18.639Z,23.20
2018-03-26T00:30:52.321Z,21.37
2018-03-26T00:33:25.583Z,21.77
2018-03-26T00:35:58.859Z,22.87
2018-03-26T00:38:32.396Z,22.17
2018-03-26T00:41:05.297Z,21.67
2018-03-26T00:43:38.601Z,21.60
2018-03-26T00:46:12.000Z,22.90
2018-03-26T00:48:45.715Z,22.10
2018-03-26T00:51:21.793Z,24.47
2018-03-26T00:53:55.443Z,23.70
2018-03-26T00:56:29.126Z,21.97
2018-03-26T00:59:02.449Z,21.90
2018-03-26T01:01:35.817Z,22.97
2018-03-26T01:04:09.259Z,22.33
2018-03-26T01:06:42.740Z,22.93
2018-03-26T01:09:16.042Z,23.03
2018-03-26T01:11:50.069Z,22.17
2018-03-26T01:14:23.624Z,23.20
2018-03-26T01:16:57.231Z,22.63
2018-03-26T01:19:30.727Z,22.23
2018-03-26T01:22:03.598Z,22.97
2018-03-26T01:24:36.907Z,23.03
2018-03-26T01:27:10.223Z,22.83
2018-03-26T01:29:43.384Z,22.00
2018-03-26T01:32:16.411Z,23.13
2018-03-26T01:34:50.486Z,22.47
2018-03-26T01:37:24.701Z,23.00
2018-03-26T01:39:58.177Z,24.07
2018-03-26T01:42:30.999Z,22.63
2018-03-26T01:45:04.295Z,22.93
2018-03-26T01:47:37.540Z,23.43
2018-03-26T01:50:10.438Z,22.07
2018-03-26T01:52:44.609Z,21.30
2018-03-26T01:55:17.510Z,22.23
2018-03-26T01:57:50.611Z,21.77
2018-03-26T02:00:26.411Z,22.10
2018-03-26T02:02:59.307Z,22.03
2018-03-26T02:05:32.198Z,23.30
2018-03-26T02:08:06.237Z,23.57
2018-03-26T02:10:39.134Z,22.53
2018-03-26T02:13:13.359Z,22.23
2018-03-26T02:15:48.972Z,21.47
2018-03-26T02:18:23.170Z,22.20
2018-03-26T02:20:56.333Z,23.10
2018-03-26T02:23:29.618Z,21.70
2018-03-26T02:26:02.457Z,22.83
2018-03-26T02:28:35.870Z,22.83
2018-03-26T02:31:09.276Z,24.53
2018-03-26T02:33:42.086Z,23.30
2018-03-26T02:36:14.940Z,24.40
2018-03-26T02:41:30.033Z,24.57
2018-03-26T02:44:03.083Z,23.50
2018-03-26T02:46:36.112Z,23.20
2018-03-26T02:49:10.284Z,22.43
2018-03-26T02:51:43.582Z,24.10
2018-03-26T02:54:16.580Z,22.90
2018-03-26T02:56:50.006Z,24.33
2018-03-26T02:59:22.956Z,24.07
2018-03-26T03:01:56.545Z,23.83
2018-03-26T03:04:30.710Z,23.77
2018-03-26T03:07:04.073Z,23.10
2018-03-26T03:09:37.791Z,25.37
2018-03-26T03:12:11.079Z,22.50
2018-03-26T03:14:43.958Z,22.43
2018-03-26T03:17:16.935Z,21.67
2018-03-26T03:19:50.227Z,21.30
2018-03-26T03:22:23.166Z,21.27
2018-03-26T03:24:56.321Z,23.57
2018-03-26T03:27:29.213Z,21.97
2018-03-26T03:30:02.235Z,22.07
2018-03-26T03:32:35.439Z,22.07
2018-03-26T03:35:08.358Z,25.77
2018-03-26T03:37:41.334Z,23.10
2018-03-26T03:40:14.750Z,23.07
2018-03-26T03:42:47.768Z,22.83
2018-03-26T03:45:21.211Z,21.90
2018-03-26T03:47:55.569Z,22.67
2018-03-26T03:50:29.795Z,23.37
2018-03-26T03:53:02.679Z,21.57
2018-03-26T03:55:36.070Z,20.90
2018-03-26T03:58:09.027Z,22.00
2018-03-26T04:00:42.149Z,24.23
2018-03-26T04:03:15.249Z,22.87
2018-03-26T04:05:48.701Z,22.57
2018-03-26T04:08:22.155Z,22.30
2018-03-26T04:10:55.308Z,24.20
2018-03-26T04:13:28.666Z,23.97
2018-03-26T04:16:01.848Z,23.47
2018-03-26T04:18:34.684Z,22.07
2018-03-26T04:21:08.315Z,22.30
2018-03-26T04:23:42.097Z,22.23
2018-03-26T04:26:15.118Z,21.33
2018-03-26T04:28:48.174Z,22.77
2018-03-26T04:31:21.837Z,24.73
2018-03-26T04:33:54.738Z,22.97
2018-03-26T04:36:27.781Z,23.20
2018-03-26T04:39:00.981Z,23.93
2018-03-26T04:41:34.593Z,23.17
2018-03-26T04:44:07.515Z,22.53
2018-03-26T04:46:40.967Z,25.27
2018-03-26T04:49:14.304Z,26.50
2018-03-26T04:51:47.967Z,26.40
2018-03-26T04:54:21.116Z,24.73
2018-03-26T04:56:54.359Z,24.33
2018-03-26T04:59:27.521Z,21.17
2018-03-26T05:02:00.481Z,22.03
2018-03-26T05:04:33.720Z,22.77
2018-03-26T05:07:07.386Z,23.00
2018-03-26T05:09:41.452Z,22.37
2018-03-26T05:12:15.551Z,20.97
2018-03-26T05:14:48.888Z,24.60
2018-03-26T05:17:22.446Z,22.67
2018-03-26T05:19:56.135Z,22.57
2018-03-26T05:22:30.691Z,21.17
2018-03-26T05:25:04.699Z,21.30
2018-03-26T05:27:38.180Z,21.60
2018-03-26T05:30:12.413Z,21.73
2018-03-26T05:32:46.115Z,21.83
2018-03-26T05:35:19.767Z,20.60
2018-03-26T05:37:56.470Z,21.73
2018-03-26T05:40:31.800Z,20.67
2018-03-26T05:44:35.447Z,19.90
2018-03-26T05:47:11.158Z,22.40
2018-03-26T05:49:44.211Z,20.50
2018-03-26T05:52:18.122Z,21.93
2018-03-26T05:54:51.816Z,22.83
2018-03-26T05:57:26.091Z,22.03
2018-03-26T05:59:59.267Z,21.13
2018-03-26T06:02:33.436Z,20.97
2018-03-26T06:05:06.881Z,21.03
2018-03-26T06:07:40.126Z,20.30
2018-03-26T06:10:14.725Z,19.17
2018-03-26T06:12:48.187Z,20.07
2018-03-26T06:15:21.605Z,21.10
2018-03-26T06:17:56.452Z,21.40
2018-03-26T06:20:30.169Z,20.20
2018-03-26T06:23:06.977Z,19.30
2018-03-26T06:25:40.441Z,20.63
2018-03-26T06:28:15.610Z,20.97
2018-03-26T06:30:49.162Z,20.07
2018-03-26T06:33:22.504Z,20.13
2018-03-26T06:35:56.182Z,19.40
2018-03-26T06:38:29.722Z,19.97
2018-03-26T06:41:03.525Z,21.23
2018-03-26T06:43:40.203Z,19.93
2018-03-26T06:46:15.432Z,20.43
2018-03-26T06:48:48.573Z,19.77
2018-03-26T06:51:21.831Z,20.97
2018-03-26T06:53:55.609Z,21.40
2018-03-26T06:56:28.792Z,22.67
2018-03-26T06:59:01.923Z,23.67
2018-03-26T07:01:35.187Z,25.60
2018-03-26T07:04:10.529Z,23.10
2018-03-26T07:06:45.319Z,24.20
2018-03-26T07:09:18.612Z,25.53
2018-03-26T07:11:53.589Z,25.17
2018-03-26T07:14:27.028Z,23.70
2018-03-26T07:17:00.751Z,24.27
2018-03-26T07:19:34.705Z,24.77
2018-03-26T07:22:07.701Z,24.80
2018-03-26T07:24:42.034Z,25.83
2018-03-26T07:27:15.862Z,26.10
2018-03-26T07:29:49.068Z,26.40
2018-03-26T07:32:22.894Z,24.53
2018-03-26T07:34:56.034Z,25.47
2018-03-26T07:37:29.064Z,25.17
2018-03-26T07:40:07.722Z,26.37
2018-03-26T07:42:41.852Z,25.70
2018-03-26T07:45:17.672Z,27.03
2018-03-26T07:47:51.892Z,25.07
2018-03-26T07:50:25.705Z,26.90
2018-03-26T07:52:59.397Z,26.50
2018-03-26T07:55:32.868Z,27.30
2018-03-26T07:58:07.754Z,26.77
2018-03-26T08:00:42.287Z,23.77
2018-03-26T08:03:18.129Z,23.17
2018-03-26T08:05:51.626Z,25.27
2018-03-26T08:08:25.301Z,26.03
2018-03-26T08:10:58.360Z,27.83
2018-03-26T08:13:32.085Z,27.13
2018-03-26T08:16:06.355Z,27.77
2018-03-26T08:18:39.417Z,30.47
2018-03-26T08:21:14.667Z,25.97
2018-03-26T08:23:50.710Z,28.37
2018-03-26T08:26:24.297Z,28.93
2018-03-26T08:28:57.621Z,27.67
2018-03-26T08:31:31.816Z,26.03
2018-03-26T08:34:04.882Z,27.57
2018-03-26T08:36:37.997Z,24.73
2018-03-26T08:39:11.885Z,26.77
2018-03-26T08:41:46.204Z,26.97
2018-03-26T08:44:19.600Z,27.37
2018-03-26T08:46:53.716Z,26.47
2018-03-26T08:49:27.673Z,24.67
2018-03-26T08:52:00.929Z,25.27
2018-03-26T08:54:34.678Z,24.70
2018-03-26T08:57:08.028Z,25.23
2018-03-26T08:59:41.219Z,24.57
2018-03-26T09:02:15.901Z,24.30
2018-03-26T09:04:50.074Z,27.13
2018-03-26T09:07:23.428Z,26.77
2018-03-26T09:09:59.964Z,23.67
2018-03-26T09:12:36.139Z,24.53
2018-03-26T09:15:09.600Z,23.90
2018-03-26T09:17:43.888Z,25.00
2018-03-26T09:20:18.314Z,21.83
2018-03-26T09:22:51.449Z,23.07
2018-03-26T09:25:30.241Z,21.93
2018-03-26T09:28:04.075Z,23.80
2018-03-26T09:30:38.600Z,23.80
2018-03-26T09:33:13.087Z,23.13
2018-03-26T09:35:46.665Z,23.33
2018-03-26T09:38:42.743Z,22.67
2018-03-26T09:41:19.818Z,24.13
2018-03-26T09:43:52.885Z,22.50
2018-03-26T09:46:26.199Z,23.67
2018-03-26T09:49:02.354Z,26.23
2018-03-26T09:51:36.058Z,24.30
2018-03-26T09:54:09.614Z,25.87
2018-03-26T09:56:43.888Z,23.90
2018-03-26T09:59:18.005Z,24.70
2018-03-26T10:01:55.479Z,23.53
2018-03-26T10:04:28.685Z,24.97
2018-03-26T10:07:04.098Z,25.07
2018-03-26T10:09:37.388Z,25.77
2018-03-26T10:12:11.808Z,25.80
2018-03-26T10:14:45.825Z,25.27
2018-03-26T10:17:19.439Z,25.60
2018-03-26T10:19:52.863Z,26.10
2018-03-26T10:22:26.264Z,25.53
2018-03-26T10:25:05.245Z,27.23
2018-03-26T10:27:40.765Z,26.07
2018-03-26T10:30:15.731Z,27.60
2018-03-26T10:32:49.350Z,27.57
2018-03-26T10:35:23.096Z,27.33
2018-03-26T10:37:56.650Z,27.00
2018-03-26T10:40:30.131Z,27.30
2018-03-26T10:43:14.669Z,27.47
2018-03-26T10:46:00.629Z,28.20
2018-03-26T10:48:39.512Z,25.93
2018-03-26T10:51:12.933Z,26.40
2018-03-26T10:53:46.976Z,27.37
2018-03-26T10:56:22.099Z,26.23
2018-03-26T10:58:56.031Z,26.27
2018-03-26T11:01:30.069Z,27.17
2018-03-26T11:04:03.514Z,26.17
2018-03-26T11:06:37.336Z,27.40
2018-03-26T11:09:14.230Z,25.90
2018-03-26T11:11:48.521Z,26.67
2018-03-26T11:14:21.581Z,27.53
2018-03-26T11:16:54.792Z,25.50
2018-03-26T11:19:29.613Z,27.30
2018-03-26T11:22:11.098Z,28.30
2018-03-26T11:24:45.078Z,27.03
2018-03-26T11:27:18.670Z,27.73
2018-03-26T11:29:53.972Z,28.97
2018-03-26T11:32:27.479Z,29.10
2018-03-26T11:35:00.741Z,27.37
2018-03-26T11:37:34.535Z,29.37
2018-03-26T11:40:08.903Z,28.83
2018-03-26T11:42:43.788Z,27.43
2018-03-26T11:45:17.333Z,28.67
2018-03-26T11:47:51.170Z,28.73
2018-03-26T11:50:24.970Z,31.73
2018-03-26T11:52:58.463Z,28.93
2018-03-26T11:55:32.126Z,28.63
2018-03-26T11:58:05.544Z,29.50
2018-03-26T12:00:40.912Z,29.43
2018-03-26T12:03:14.858Z,29.43
2018-03-26T12:05:48.024Z,30.33
2018-03-26T12:08:21.146Z,30.37
2018-03-26T12:10:55.511Z,29.60
2018-03-26T12:13:28.593Z,29.17
2018-03-26T12:16:01.706Z,31.33
2018-03-26T12:18:37.977Z,30.60
2018-03-26T12:21:11.457Z,30.50
2018-03-26T12:25:03.025Z,29.90
2018-03-26T12:27:41.983Z,29.57
2018-03-26T12:30:21.220Z,30.50
2018-03-26T12:32:54.785Z,31.23
2018-03-26T12:35:39.441Z,31.97
2018-03-26T12:38:12.456Z,30.53
2018-03-26T12:40:51.427Z,28.90
2018-03-26T12:43:24.678Z,27.20
2018-03-26T12:47:02.601Z,29.23
2018-03-26T12:49:36.332Z,28.93
2018-03-26T12:52:51.629Z,28.20
2018-03-26T12:55:27.928Z,27.13
2018-03-26T12:58:15.389Z,28.03
2018-03-26T13:01:01.712Z,27.20
2018-03-26T13:03:35.827Z,28.43
2018-03-26T13:06:09.539Z,27.40
2018-03-26T13:08:45.716Z,27.17
2018-03-26T13:11:19.066Z,26.93
2018-03-26T13:13:52.662Z,26.20
2018-03-26T13:16:26.559Z,28.00
2018-03-26T13:19:01.204Z,28.07
2018-03-26T13:21:36.919Z,28.50
2018-03-26T13:24:10.773Z,29.50
2018-03-26T13:26:46.443Z,28.67
2018-03-26T13:29:20.930Z,29.23
2018-03-26T13:31:55.089Z,29.63
2018-03-26T13:34:28.876Z,29.43
2018-03-26T13:37:02.276Z,29.60
2018-03-26T13:39:35.640Z,28.83
2018-03-26T13:42:09.720Z,28.23
2018-03-26T13:44:43.615Z,29.70
2018-03-26T13:47:17.260Z,28.20
2018-03-26T13:49:52.142Z,25.03
2018-03-26T13:52:26.320Z,24.87
2018-03-26T13:55:00.552Z,25.57
2018-03-26T13:57:34.120Z,25.47
2018-03-26T14:00:08.218Z,24.10
2018-03-26T14:02:42.949Z,25.23
2018-03-26T14:05:19.247Z,23.77
2018-03-26T14:07:53.963Z,25.07
2018-03-26T14:12:42.429Z,23.60
2018-03-26T14:17:55.711Z,23.60
2018-03-26T14:22:52.036Z,22.90
2018-03-26T14:25:26.076Z,23.73
2018-03-26T14:27:59.883Z,22.03
2018-03-26T14:30:34.238Z,21.30
2018-03-26T14:33:12.241Z,20.83
2018-03-26T14:35:49.077Z,22.10
2018-03-26T14:38:25.573Z,21.43
2018-03-26T14:40:59.606Z,21.70
2018-03-26T14:43:35.044Z,20.73
2018-03-26T14:46:14.167Z,21.03
2018-03-26T14:48:49.650Z,19.40
2018-03-26T14:51:22.784Z,16.90
2018-03-26T14:53:58.100Z,17.23
2018-03-26T14:56:31.094Z,15.53
2018-03-26T14:59:04.353Z,14.57
2018-03-26T15:01:38.486Z,14.67
2018-03-26T15:04:12.168Z,15.87
2018-03-26T15:06:45.570Z,13.17
2018-03-26T15:09:19.316Z,14.03
2018-03-26T15:11:54.042Z,14.83
2018-03-26T15:14:27.595Z,16.57
2018-03-26T15:17:02.035Z,17.90
2018-03-26T15:19:37.878Z,17.93
2018-03-26T15:22:13.291Z,17.90
2018-03-26T15:24:46.509Z,17.00
2018-03-26T15:27:20.154Z,17.77
2018-03-26T15:29:53.835Z,16.57
2018-03-26T15:32:26.960Z,17.10
2018-03-26T15:35:01.501Z,16.73
2018-03-26T15:37:35.177Z,20.43
2018-03-26T15:40:08.254Z,20.77
2018-03-26T15:42:43.715Z,19.70
2018-03-26T15:45:17.902Z,21.00
2018-03-26T15:47:51.206Z,21.43
2018-03-26T15:50:25.080Z,21.37
2018-03-26T15:52:58.887Z,22.07
2018-03-26T15:55:32.726Z,24.23
2018-03-26T15:58:07.233Z,23.07
2018-03-26T16:00:47.618Z,23.63
2018-03-26T16:03:25.188Z,25.97
2018-03-26T16:05:58.787Z,22.93
2018-03-26T16:08:32.289Z,23.60
2018-03-26T16:11:06.773Z,20.73
2018-03-26T16:13:40.335Z,22.20
2018-03-26T16:16:13.504Z,22.87
2018-03-26T16:18:47.963Z,23.80
2018-03-26T16:21:22.210Z,21.80
2018-03-26T16:23:55.394Z,22.53
2018-03-26T16:26:29.655Z,20.57
2018-03-26T16:29:02.785Z,25.07
2018-03-26T16:31:35.951Z,23.17
2018-03-26T16:34:09.517Z,27.13
2018-03-26T16:36:42.547Z,26.23
2018-03-26T16:39:15.809Z,26.30
2018-03-26T16:41:50.379Z,24.00
2018-03-26T16:44:23.953Z,22.70
2018-03-26T16:46:57.574Z,23.40
2018-03-26T16:49:31.930Z,20.93
2018-03-26T16:52:05.116Z,19.73
2018-03-26T16:54:38.230Z,19.40
2018-03-26T16:57:12.847Z,18.53
2018-03-26T16:59:46.191Z,16.30
2018-03-26T17:02:19.923Z,16.60
2018-03-26T17:04:55.892Z,16.90
2018-03-26T17:07:30.620Z,16.53
2018-03-26T17:10:06.425Z,20.47
2018-03-26T17:12:41.529Z,18.57
2018-03-26T17:15:16.387Z,17.00
2018-03-26T17:17:50.292Z,15.00
2018-03-26T17:20:24.813Z,14.67
2018-03-26T17:22:58.019Z,16.53
2018-03-26T17:25:31.293Z,19.47
2018-03-26T17:28:04.523Z,18.33
2018-03-26T17:30:39.190Z,20.03
2018-03-26T17:33:12.971Z,20.70
2018-03-26T17:35:47.041Z,24.30
2018-03-26T17:38:20.556Z,24.37
2018-03-26T17:40:55.288Z,32.90
2018-03-26T17:43:31.976Z,31.83
2018-03-26T17:46:05.671Z,26.27
2018-03-26T17:48:46.997Z,22.73
2018-03-26T17:51:21.181Z,21.17
2018-03-26T17:53:56.164Z,23.43
2018-03-26T17:56:29.484Z,22.70
2018-03-26T17:59:03.238Z,20.67
2018-03-26T18:01:38.469Z,22.13
2018-03-26T18:04:13.153Z,19.70
2018-03-26T18:06:46.658Z,19.20
2018-03-26T18:09:20.742Z,20.00
2018-03-26T18:11:53.915Z,23.93
2018-03-26T18:14:27.500Z,52.87
2018-03-26T18:17:02.380Z,52.50
2018-03-26T18:19:35.378Z,31.40
2018-03-26T18:22:09.795Z,22.57
2018-03-26T18:24:49.585Z,20.10
2018-03-26T18:27:24.373Z,19.13
2018-03-26T18:29:58.530Z,20.70
2018-03-26T18:32:33.053Z,26.17
2018-03-26T18:35:06.687Z,26.13
2018-03-26T18:37:41.032Z,23.77
2018-03-26T18:40:14.499Z,20.87
2018-03-26T18:42:47.815Z,20.33
2018-03-26T18:45:23.514Z,20.87
2018-03-26T18:48:01.185Z,19.40
2018-03-26T18:50:37.366Z,20.53
2018-03-26T18:53:11.219Z,19.10
2018-03-26T18:55:50.725Z,19.50
2018-03-26T18:58:28.588Z,19.37
2018-03-26T19:01:08.378Z,24.07
2018-03-26T19:03:47.239Z,25.80
2018-03-26T19:06:23.576Z,32.53
2018-03-26T19:09:00.622Z,36.43
2018-03-26T19:11:36.764Z,28.83
2018-03-26T19:14:11.090Z,23.67
2018-03-26T19:16:45.859Z,23.50
2018-03-26T19:19:22.870Z,21.93
2018-03-26T19:22:02.377Z,22.60
2018-03-26T19:24:39.429Z,22.10
2018-03-26T19:27:18.488Z,22.03
2018-03-26T19:29:56.711Z,22.57
2018-03-26T19:32:31.590Z,22.60
2018-03-26T19:35:06.099Z,22.33
2018-03-26T19:37:39.743Z,22.57
2018-03-26T19:40:14.966Z,22.17
2018-03-26T19:42:50.306Z,22.60
2018-03-26T19:45:26.671Z,22.73
2018-03-26T19:48:02.400Z,22.70
2018-03-26T19:50:43.005Z,23.17
2018-03-26T19:53:17.328Z,22.17
2018-03-26T19:55:54.936Z,22.53
2018-03-26T19:58:29.252Z,22.53
2018-03-26T20:01:03.097Z,22.33
2018-03-26T20:03:38.201Z,22.73
2018-03-26T20:06:14.244Z,21.47
2018-03-26T20:08:47.743Z,21.43
2018-03-26T20:11:22.933Z,22.60
2018-03-26T20:14:00.089Z,26.47
2018-03-26T20:16:38.473Z,23.90
2018-03-26T20:19:13.413Z,23.10
2018-03-26T20:21:50.521Z,21.40
2018-03-26T20:24:28.594Z,20.83
2018-03-26T20:27:03.248Z,24.07
2018-03-26T20:29:42.917Z,24.07
2018-03-26T20:32:22.609Z,22.47
2018-03-26T20:35:00.661Z,22.07
2018-03-26T20:37:36.447Z,23.53
2018-03-26T20:40:10.639Z,24.23
2018-03-26T20:42:46.473Z,22.10
2018-03-26T20:45:24.536Z,23.97
2018-03-26T20:48:01.995Z,24.23
2018-03-26T20:50:40.716Z,23.80
2018-03-26T20:53:18.505Z,24.37
2018-03-26T20:55:54.372Z,23.67
2018-03-26T20:58:39.004Z,23.20
2018-03-26T21:01:18.428Z,22.07
2018-03-26T21:03:56.221Z,21.53
2018-03-26T21:06:32.287Z,27.53
2018-03-26T21:09:08.543Z,28.73
2018-03-26T21:11:45.415Z,27.83
2018-03-26T21:14:21.295Z,29.23
2018-03-26T21:16:54.679Z,25.03
2018-03-26T21:19:28.559Z,24.90
2018-03-26T21:22:02.525Z,22.73
2018-03-26T21:24:36.690Z,23.43
2018-03-26T21:27:10.383Z,25.07
2018-03-26T21:29:49.315Z,23.93
2018-03-26T21:32:30.418Z,25.33
2018-03-26T21:35:05.292Z,23.27
2018-03-26T21:37:38.738Z,18.10
2018-03-26T21:40:12.556Z,15.80
2018-03-26T21:42:46.286Z,16.17
2018-03-26T21:45:20.112Z,14.83
2018-03-26T21:47:53.231Z,11.73
2018-03-26T21:50:26.991Z,11.67
2018-03-26T21:53:00.033Z,11.80
2018-03-26T21:55:33.211Z,10.33
2018-03-26T21:58:06.754Z,11.07
2018-03-26T22:00:40.270Z,12.40
2018-03-26T22:03:15.666Z,11.73
2018-03-26T22:05:49.196Z,11.67
2018-03-26T22:08:22.417Z,11.30
2018-03-26T22:10:56.082Z,11.87
2018-03-26T22:13:30.170Z,11.00
2018-03-26T22:16:03.871Z,10.80
2018-03-26T22:18:37.111Z,12.10
2018-03-26T22:21:11.085Z,12.10
2018-03-26T22:23:44.229Z,11.50
2018-03-26T22:26:17.283Z,12.50
2018-03-26T22:28:51.079Z,12.50
2018-03-26T22:31:24.309Z,12.43
2018-03-26T22:33:57.465Z,12.83
2018-03-26T22:36:32.188Z,12.70
2018-03-26T22:39:05.494Z,13.13
2018-03-26T22:41:39.396Z,12.37
2018-03-26T22:44:12.845Z,12.63
2018-03-26T22:46:46.005Z,14.43
2018-03-26T22:49:19.706Z,15.90
2018-03-26T22:51:55.354Z,14.77
2018-03-26T22:54:29.274Z,16.80
2018-03-26T22:57:04.041Z,17.80
2018-03-26T22:59:37.459Z,18.07
2018-03-26T23:02:11.167Z,16.60
2018-03-26T23:04:44.500Z,17.77
2018-03-26T23:07:17.924Z,18.30
2018-03-26T23:09:50.962Z,19.03
2018-03-26T23:12:24.113Z,19.07
2018-03-26T23:14:57.670Z,21.13
2018-03-26T23:17:31.091Z,19.77
2018-03-26T23:20:05.283Z,19.13
2018-03-26T23:22:47.422Z,20.13
2018-03-26T23:25:21.163Z,20.60
2018-03-26T23:27:54.620Z,20.57
2018-03-26T23:30:28.250Z,23.50
2018-03-26T23:33:01.651Z,23.20
2018-03-26T23:35:35.250Z,21.00
2018-03-26T23:38:09.080Z,21.73
2018-03-26T23:40:44.083Z,21.50
2018-03-26T23:43:19.666Z,19.80
2018-03-26T23:45:53.743Z,20.30
2018-03-26T23:48:27.285Z,21.47
2018-03-26T23:51:01.647Z,21.90
2018-03-26T23:53:34.808Z,20.90
2018-03-26T23:56:08.661Z,19.43
2018-03-26T23:58:42.238Z,20.90
